createdAt,value
2023-04-09T00:00:16.649Z,50.89
2023-04-09T00:02:43.461Z,51.25
2023-04-09T00:05:10.295Z,51.48
2023-04-09T00:07:37.031Z,51.48
2023-04-09T00:10:03.923Z,51.07
2023-04-09T00:12:30.776Z,51.40
2023-04-09T00:14:57.574Z,51.36
2023-04-09T00:17:24.637Z,51.96
2023-04-09T00:19:52.277Z,52.00
2023-04-09T00:22:19.119Z,52.46
2023-04-09T00:24:46.204Z,51.73
2023-04-09T00:27:12.960Z,51.69
2023-04-09T00:29:39.624Z,50.80
2023-04-09T00:32:06.764Z,51.37
2023-04-09T00:34:33.617Z,51.14
2023-04-09T00:37:00.649Z,51.71
2023-04-09T00:39:27.428Z,51.06
2023-04-09T00:41:58.330Z,51.37
2023-04-09T00:44:25.534Z,51.28
2023-04-09T00:46:53.199Z,51.43
2023-04-09T00:49:19.930Z,51.58
2023-04-09T00:51:47.621Z,51.78
2023-04-09T00:54:14.539Z,51.79
2023-04-09T00:56:42.303Z,50.89
2023-04-09T00:59:09.127Z,50.73
2023-04-09T01:01:36.207Z,51.17
2023-04-09T01:04:03.074Z,51.80
2023-04-09T01:06:38.818Z,51.51
2023-04-09T01:09:10.498Z,51.75
2023-04-09T01:11:42.146Z,51.50
2023-04-09T01:14:14.419Z,51.34
2023-04-09T01:16:44.310Z,50.79
2023-04-09T01:19:32.331Z,50.44
2023-04-09T01:21:59.489Z,50.17
2023-04-09T01:24:29.129Z,50.45
2023-04-09T01:27:09.091Z,50.59
2023-04-09T01:30:09.395Z,50.97
2023-04-09T01:32:37.285Z,51.09
2023-04-09T01:35:04.421Z,51.74
2023-04-09T01:37:31.681Z,51.52
2023-04-09T01:39:59.138Z,51.52
2023-04-09T01:42:26.317Z,50.95
2023-04-09T01:44:53.655Z,50.73
2023-04-09T01:47:21.545Z,50.48
2023-04-09T01:49:48.280Z,51.00
2023-04-09T01:52:15.369Z,50.00
2023-04-09T01:54:42.725Z,50.77
2023-04-09T01:57:09.581Z,50.17
2023-04-09T01:59:36.279Z,50.21
2023-04-09T02:02:12.395Z,50.95
2023-04-09T02:04:46.798Z,51.01
2023-04-09T02:07:25.588Z,50.68
2023-04-09T02:09:53.348Z,50.58
2023-04-09T02:12:21.023Z,50.15
2023-04-09T02:14:51.217Z,50.00
2023-04-09T02:17:18.680Z,49.88
2023-04-09T02:19:46.388Z,50.01
2023-04-09T02:22:14.320Z,50.06
2023-04-09T02:24:41.551Z,50.51
2023-04-09T02:27:08.763Z,50.20
2023-04-09T02:29:35.403Z,49.49
2023-04-09T02:32:02.401Z,49.56
2023-04-09T02:34:29.125Z,50.00
2023-04-09T02:36:56.344Z,49.35
2023-04-09T02:39:23.029Z,49.71
2023-04-09T02:41:50.084Z,49.60
2023-04-09T02:44:16.716Z,49.77
2023-04-09T02:46:44.524Z,50.27
2023-04-09T02:49:11.338Z,50.16
2023-04-09T02:51:38.139Z,50.20
2023-04-09T02:54:04.879Z,49.77
2023-04-09T02:56:31.809Z,49.49
2023-04-09T02:58:58.442Z,49.78
2023-04-09T03:01:25.413Z,49.74
2023-04-09T03:03:52.367Z,50.13
2023-04-09T03:06:19.347Z,49.63
2023-04-09T03:08:46.333Z,50.01
2023-04-09T03:11:13.149Z,49.94
2023-04-09T03:13:39.918Z,50.40
2023-04-09T03:16:07.823Z,50.25
2023-04-09T03:18:34.593Z,50.33
2023-04-09T03:21:04.721Z,50.12
2023-04-09T03:23:34.970Z,49.96
2023-04-09T03:26:06.067Z,50.20
2023-04-09T03:28:43.321Z,49.78
2023-04-09T03:31:10.217Z,50.40
2023-04-09T03:33:39.592Z,50.00
2023-04-09T03:36:07.001Z,50.77
2023-04-09T03:38:46.824Z,50.98
2023-04-09T03:41:26.025Z,50.51
2023-04-09T03:43:53.791Z,50.13
2023-04-09T03:46:25.375Z,50.23
2023-04-09T03:48:52.354Z,50.54
2023-04-09T03:51:19.529Z,50.11
2023-04-09T03:53:52.722Z,50.43
2023-04-09T03:56:19.889Z,50.71
2023-04-09T03:58:48.491Z,50.65
2023-04-09T04:01:16.659Z,50.60
2023-04-09T04:03:55.634Z,50.13
2023-04-09T04:06:24.495Z,50.69
2023-04-09T04:09:11.373Z,50.99
2023-04-09T04:11:51.071Z,50.65
2023-04-09T04:14:19.648Z,50.89
2023-04-09T04:16:52.130Z,50.23
2023-04-09T04:19:22.021Z,50.70
2023-04-09T04:21:51.304Z,50.64
2023-04-09T04:24:18.090Z,50.83
2023-04-09T04:26:44.968Z,50.64
2023-04-09T04:29:14.787Z,50.62
2023-04-09T04:31:50.966Z,51.23
2023-04-09T04:34:20.724Z,51.32
2023-04-09T04:36:54.240Z,51.75
2023-04-09T04:39:21.664Z,51.59
2023-04-09T04:41:54.609Z,51.33
2023-04-09T04:44:25.432Z,51.10
2023-04-09T04:46:59.413Z,50.74
2023-04-09T04:49:26.277Z,52.11
2023-04-09T04:51:52.976Z,51.42
2023-04-09T04:54:19.589Z,51.42
2023-04-09T04:56:51.254Z,50.85
2023-04-09T04:59:41.209Z,51.35
2023-04-09T05:02:10.691Z,51.37
2023-04-09T05:04:57.880Z,51.75
2023-04-09T05:07:33.459Z,51.91
2023-04-09T05:10:00.842Z,51.29
2023-04-09T05:12:32.943Z,51.74
2023-04-09T05:15:01.527Z,51.36
2023-04-09T05:17:28.607Z,52.34
2023-04-09T05:19:56.708Z,52.41
2023-04-09T05:22:31.844Z,51.66
2023-04-09T05:24:58.670Z,51.39
2023-04-09T05:27:27.673Z,51.23
2023-04-09T05:30:00.866Z,50.68
2023-04-09T05:32:28.180Z,50.89
2023-04-09T05:34:55.831Z,50.21
2023-04-09T05:37:23.205Z,50.42
2023-04-09T05:39:52.329Z,50.78
2023-04-09T05:42:19.517Z,50.89
2023-04-09T05:45:05.518Z,50.75
2023-04-09T05:47:32.510Z,50.56
2023-04-09T05:50:04.519Z,50.91
2023-04-09T05:52:31.312Z,50.11
2023-04-09T05:54:58.213Z,50.00
2023-04-09T05:57:37.610Z,50.03
2023-04-09T06:00:05.188Z,49.97
2023-04-09T06:02:43.222Z,49.41
2023-04-09T06:05:10.473Z,49.31
2023-04-09T06:07:37.168Z,48.51
2023-04-09T06:10:04.203Z,48.41
2023-04-09T06:12:30.870Z,48.22
2023-04-09T06:14:57.672Z,49.10
2023-04-09T06:17:24.334Z,48.35
2023-04-09T06:19:51.180Z,49.29
2023-04-09T06:22:17.884Z,49.05
2023-04-09T06:24:44.561Z,48.67
2023-04-09T06:27:11.302Z,48.52
2023-04-09T06:29:38.119Z,48.49
2023-04-09T06:32:05.905Z,48.39
2023-04-09T06:34:32.705Z,47.98
2023-04-09T06:36:59.583Z,47.79
2023-04-09T06:39:26.328Z,48.70
2023-04-09T06:41:53.320Z,48.82
2023-04-09T06:44:33.663Z,48.67
2023-04-09T06:47:02.475Z,47.79
2023-04-09T06:49:29.126Z,47.27
2023-04-09T06:51:56.285Z,47.34
2023-04-09T06:54:22.967Z,47.07
2023-04-09T06:56:49.851Z,46.96
2023-04-09T06:59:17.043Z,47.50
2023-04-09T07:01:44.277Z,47.09
2023-04-09T07:04:11.220Z,46.77
2023-04-09T07:06:38.056Z,46.94
2023-04-09T07:09:04.790Z,46.82
2023-04-09T07:11:31.436Z,46.99
2023-04-09T07:13:58.626Z,46.46
2023-04-09T07:16:25.383Z,46.35
2023-04-09T07:18:52.369Z,45.38
2023-04-09T07:21:19.290Z,45.23
2023-04-09T07:23:46.812Z,45.02
2023-04-09T07:26:13.555Z,44.85
2023-04-09T07:28:42.381Z,45.65
2023-04-09T07:31:09.537Z,45.37
2023-04-09T07:33:36.403Z,44.27
2023-04-09T07:36:03.640Z,45.73
2023-04-09T07:38:30.429Z,44.20
2023-04-09T07:40:57.208Z,44.05
2023-04-09T07:43:23.855Z,43.99
2023-04-09T07:45:53.062Z,43.74
2023-04-09T07:48:19.796Z,43.30
2023-04-09T07:50:46.493Z,42.15
2023-04-09T07:53:13.523Z,41.92
2023-04-09T07:55:40.742Z,42.58
2023-04-09T07:58:07.629Z,42.34
2023-04-09T08:00:34.226Z,42.56
2023-04-09T08:03:01.870Z,42.51
2023-04-09T08:05:28.931Z,43.07
2023-04-09T08:08:14.444Z,42.94
2023-04-09T08:10:41.360Z,43.13
2023-04-09T08:13:10.149Z,43.91
2023-04-09T08:15:38.250Z,43.50
2023-04-09T08:18:05.944Z,43.99
2023-04-09T08:20:33.436Z,43.81
2023-04-09T08:23:00.127Z,43.49
2023-04-09T08:25:26.912Z,42.95
2023-04-09T08:27:53.714Z,42.21
2023-04-09T08:30:21.322Z,42.46
2023-04-09T08:32:48.574Z,42.86
2023-04-09T08:35:16.416Z,42.33
2023-04-09T08:37:46.160Z,42.05
2023-04-09T08:40:13.078Z,42.41
2023-04-09T08:42:46.057Z,41.93
2023-04-09T08:45:13.185Z,41.38
2023-04-09T08:47:41.710Z,41.46
2023-04-09T08:50:08.794Z,41.53
2023-04-09T08:52:36.872Z,41.90
2023-04-09T08:55:03.988Z,41.83
2023-04-09T08:57:30.719Z,41.71
2023-04-09T08:59:58.936Z,42.09
2023-04-09T09:02:25.835Z,42.10
2023-04-09T09:04:55.149Z,41.72
2023-04-09T09:07:21.809Z,41.29
2023-04-09T09:09:55.838Z,41.28
2023-04-09T09:12:32.735Z,41.81
2023-04-09T09:14:59.858Z,41.50
2023-04-09T09:17:26.756Z,41.80
2023-04-09T09:19:53.626Z,41.70
2023-04-09T09:22:20.674Z,41.82
2023-04-09T09:24:51.226Z,41.17
2023-04-09T09:27:43.201Z,41.28
2023-04-09T09:30:20.315Z,41.83
2023-04-09T09:32:47.147Z,42.25
2023-04-09T09:35:17.478Z,41.51
2023-04-09T09:37:44.344Z,42.63
2023-04-09T09:40:29.898Z,41.44
2023-04-09T09:42:58.085Z,41.35
2023-04-09T09:45:25.810Z,41.47
2023-04-09T09:47:53.123Z,41.00
2023-04-09T09:50:22.724Z,41.37
2023-04-09T09:52:51.246Z,40.32
2023-04-09T09:55:18.551Z,40.20
2023-04-09T09:57:47.938Z,40.52
2023-04-09T10:00:14.910Z,39.47
2023-04-09T10:02:45.164Z,39.51
2023-04-09T10:05:12.426Z,39.63
2023-04-09T10:07:39.362Z,39.48
2023-04-09T10:10:07.368Z,37.98
2023-04-09T10:12:35.380Z,38.27
2023-04-09T10:15:05.173Z,38.53
2023-04-09T10:17:32.702Z,38.62
2023-04-09T10:20:22.867Z,38.55
2023-04-09T10:22:51.779Z,38.16
2023-04-09T10:25:38.992Z,37.52
2023-04-09T10:28:14.580Z,37.74
2023-04-09T10:30:41.412Z,36.33
2023-04-09T10:33:15.441Z,36.87
2023-04-09T10:35:42.734Z,37.24
2023-04-09T10:38:14.369Z,37.49
2023-04-09T10:40:48.046Z,37.54
2023-04-09T10:43:19.968Z,37.99
2023-04-09T10:45:53.698Z,36.71
2023-04-09T10:48:21.991Z,36.36
2023-04-09T10:50:50.801Z,36.57
2023-04-09T10:53:24.576Z,36.62
2023-04-09T10:55:52.053Z,36.36
2023-04-09T10:58:19.014Z,36.00
2023-04-09T11:00:47.300Z,36.40
2023-04-09T11:03:27.641Z,37.07
2023-04-09T11:06:00.095Z,36.68
2023-04-09T11:08:28.876Z,37.25
2023-04-09T11:10:58.426Z,37.10
2023-04-09T11:13:25.398Z,36.34
2023-04-09T11:15:52.398Z,36.02
2023-04-09T11:18:22.240Z,36.53
2023-04-09T11:20:49.391Z,37.71
2023-04-09T11:23:16.589Z,37.49
2023-04-09T11:25:43.462Z,37.02
2023-04-09T11:28:10.151Z,36.77
2023-04-09T11:30:37.523Z,35.57
2023-04-09T11:33:04.508Z,35.94
2023-04-09T11:35:34.221Z,35.51
2023-04-09T11:38:01.305Z,36.13
2023-04-09T11:40:29.276Z,36.87
2023-04-09T11:42:56.528Z,36.27
2023-04-09T11:45:25.253Z,35.47
2023-04-09T11:47:52.227Z,35.09
2023-04-09T11:50:19.425Z,34.01
2023-04-09T11:52:46.518Z,33.50
2023-04-09T11:55:22.769Z,33.39
2023-04-09T11:57:51.227Z,33.69
2023-04-09T12:00:18.207Z,34.01
2023-04-09T12:02:46.462Z,32.86
2023-04-09T12:05:21.668Z,32.39
2023-04-09T12:07:55.555Z,31.85
2023-04-09T12:10:26.484Z,31.14
2023-04-09T12:12:53.128Z,31.62
2023-04-09T12:15:21.623Z,31.54
2023-04-09T12:17:53.993Z,30.84
2023-04-09T12:20:29.972Z,30.74
2023-04-09T12:22:58.156Z,30.47
2023-04-09T12:25:24.756Z,30.25
2023-04-09T12:27:51.529Z,30.44
2023-04-09T12:30:18.200Z,29.72
2023-04-09T12:32:45.986Z,29.28
2023-04-09T12:35:13.334Z,30.17
2023-04-09T12:37:40.461Z,30.30
2023-04-09T12:40:07.647Z,30.49
2023-04-09T12:42:34.425Z,31.72
2023-04-09T12:45:01.323Z,31.47
2023-04-09T12:47:28.137Z,32.00
2023-04-09T12:49:54.913Z,32.87
2023-04-09T12:52:22.641Z,32.90
2023-04-09T12:54:49.297Z,32.29
2023-04-09T12:57:16.341Z,32.27
2023-04-09T12:59:43.249Z,31.49
2023-04-09T13:02:10.544Z,31.98
2023-04-09T13:04:37.590Z,31.92
2023-04-09T13:07:04.376Z,32.61
2023-04-09T13:09:31.609Z,32.36
2023-04-09T13:11:58.295Z,32.69
2023-04-09T13:14:24.868Z,33.58
2023-04-09T13:16:55.015Z,35.26
2023-04-09T13:19:21.920Z,34.40
2023-04-09T13:21:48.510Z,33.93
2023-04-09T13:24:15.246Z,34.54
2023-04-09T13:26:42.238Z,34.56
2023-04-09T13:29:09.115Z,34.56
2023-04-09T13:31:36.468Z,34.46
2023-04-09T13:34:03.235Z,34.85
2023-04-09T13:36:31.485Z,35.09
2023-04-09T13:39:04.356Z,35.07
2023-04-09T13:41:33.261Z,34.07
2023-04-09T13:44:03.156Z,32.82
2023-04-09T13:46:30.027Z,33.40
2023-04-09T13:48:56.922Z,32.68
2023-04-09T13:51:23.987Z,32.03
2023-04-09T13:53:50.899Z,32.75
2023-04-09T13:56:17.817Z,32.42
2023-04-09T13:58:45.703Z,32.22
2023-04-09T14:01:12.647Z,32.65
2023-04-09T14:03:40.306Z,32.54
2023-04-09T14:06:08.639Z,33.51
2023-04-09T14:08:35.698Z,33.67
2023-04-09T14:11:02.712Z,33.89
2023-04-09T14:13:29.415Z,33.15
2023-04-09T14:15:57.481Z,34.24
2023-04-09T14:18:26.366Z,34.38
2023-04-09T14:20:53.199Z,34.56
2023-04-09T14:23:19.891Z,34.30
2023-04-09T14:25:46.803Z,33.88
2023-04-09T14:28:13.598Z,34.80
2023-04-09T14:30:40.793Z,34.51
2023-04-09T14:33:07.499Z,35.15
2023-04-09T14:35:34.540Z,34.97
2023-04-09T14:38:04.385Z,34.49
2023-04-09T14:40:31.921Z,34.80
2023-04-09T14:43:01.246Z,33.55
2023-04-09T14:45:30.420Z,34.02
2023-04-09T14:47:57.732Z,34.10
2023-04-09T14:50:24.513Z,36.15
2023-04-09T14:52:57.000Z,35.88
2023-04-09T14:55:25.795Z,37.58
2023-04-09T14:57:52.472Z,37.40
2023-04-09T15:00:19.480Z,36.55
2023-04-09T15:02:47.669Z,36.64
2023-04-09T15:05:15.025Z,36.66
2023-04-09T15:07:41.754Z,36.08
2023-04-09T15:10:08.823Z,37.02
2023-04-09T15:12:35.728Z,36.38
2023-04-09T15:15:05.177Z,35.89
2023-04-09T15:17:32.388Z,35.42
2023-04-09T15:19:59.351Z,35.95
2023-04-09T15:22:26.371Z,35.02
2023-04-09T15:24:53.708Z,34.54
2023-04-09T15:27:20.700Z,34.17
2023-04-09T15:29:47.284Z,33.66
2023-04-09T15:32:13.885Z,33.89
2023-04-09T15:34:40.813Z,34.36
2023-04-09T15:37:07.463Z,36.67
2023-04-09T15:39:35.240Z,38.03
2023-04-09T15:42:02.098Z,39.54
2023-04-09T15:44:29.076Z,38.10
2023-04-09T15:46:56.865Z,38.36
2023-04-09T15:49:23.694Z,38.82
2023-04-09T15:51:50.548Z,39.19
2023-04-09T15:54:17.326Z,39.56
2023-04-09T15:56:44.018Z,40.41
2023-04-09T15:59:10.964Z,41.02
2023-04-09T16:01:37.872Z,41.06
2023-04-09T16:04:05.214Z,40.87
2023-04-09T16:06:32.450Z,40.42
2023-04-09T16:08:59.141Z,41.24
2023-04-09T16:11:26.250Z,41.29
2023-04-09T16:13:53.217Z,41.16
2023-04-09T16:16:20.853Z,41.26
2023-04-09T16:18:47.642Z,41.42
2023-04-09T16:21:14.657Z,41.65
2023-04-09T16:23:41.590Z,42.29
2023-04-09T16:26:09.753Z,42.51
2023-04-09T16:28:36.427Z,43.17
2023-04-09T16:31:03.222Z,42.19
2023-04-09T16:33:30.261Z,42.72
2023-04-09T16:35:57.961Z,42.40
2023-04-09T16:38:29.629Z,42.62
2023-04-09T16:40:56.495Z,42.28
2023-04-09T16:43:23.204Z,42.23
2023-04-09T16:45:50.127Z,42.99
2023-04-09T16:48:17.077Z,43.16
2023-04-09T16:50:43.868Z,43.05
2023-04-09T16:53:11.595Z,42.50
2023-04-09T16:55:38.264Z,42.80
2023-04-09T16:58:05.150Z,42.88
2023-04-09T17:00:31.930Z,42.57
2023-04-09T17:02:58.987Z,42.51
2023-04-09T17:05:25.936Z,42.86
2023-04-09T17:07:54.169Z,42.26
2023-04-09T17:10:20.899Z,42.59
2023-04-09T17:12:48.422Z,42.63
2023-04-09T17:15:15.344Z,42.35
2023-04-09T17:17:45.204Z,42.74
2023-04-09T17:20:12.343Z,43.06
2023-04-09T17:22:39.390Z,43.11
2023-04-09T17:25:08.573Z,42.40
2023-04-09T17:27:35.735Z,42.51
2023-04-09T17:30:02.738Z,42.66
2023-04-09T17:32:29.708Z,42.83
2023-04-09T17:34:56.432Z,43.18
2023-04-09T17:37:23.144Z,42.30
2023-04-09T17:39:49.989Z,42.04
2023-04-09T17:42:16.728Z,42.45
2023-04-09T17:44:44.226Z,42.62
2023-04-09T17:47:12.376Z,42.82
2023-04-09T17:49:39.529Z,42.66
2023-04-09T17:52:06.574Z,43.09
2023-04-09T17:54:34.854Z,43.38
2023-04-09T17:57:02.614Z,43.52
2023-04-09T17:59:29.360Z,42.69
2023-04-09T18:01:56.809Z,43.63
2023-04-09T18:04:24.352Z,43.72
2023-04-09T18:06:51.679Z,43.99
2023-04-09T18:09:18.572Z,43.80
2023-04-09T18:11:46.237Z,43.42
2023-04-09T18:14:12.980Z,43.58
2023-04-09T18:16:40.020Z,43.95
2023-04-09T18:19:07.324Z,43.66
2023-04-09T18:21:37.759Z,43.02
2023-04-09T18:24:04.800Z,43.82
2023-04-09T18:26:33.533Z,44.11
2023-04-09T18:29:01.401Z,43.50
2023-04-09T18:31:28.558Z,42.95
2023-04-09T18:33:55.516Z,42.91
2023-04-09T18:36:22.446Z,43.12
2023-04-09T18:38:49.214Z,42.94
2023-04-09T18:41:23.382Z,42.70
2023-04-09T18:43:50.225Z,42.76
2023-04-09T18:46:17.285Z,42.70
2023-04-09T18:48:44.366Z,43.16
2023-04-09T18:51:12.107Z,43.04
2023-04-09T18:53:38.727Z,42.68
2023-04-09T18:56:05.571Z,42.85
2023-04-09T18:58:33.821Z,42.60
2023-04-09T19:01:01.436Z,42.87
2023-04-09T19:03:30.753Z,42.63
2023-04-09T19:05:59.726Z,42.82
2023-04-09T19:08:27.343Z,42.40
2023-04-09T19:10:55.625Z,42.00
2023-04-09T19:13:22.294Z,42.42
2023-04-09T19:15:48.965Z,42.13
2023-04-09T19:18:17.115Z,42.29
2023-04-09T19:20:44.004Z,41.90
2023-04-09T19:23:10.979Z,42.01
2023-04-09T19:25:37.852Z,42.92
2023-04-09T19:28:04.486Z,42.95
2023-04-09T19:30:31.288Z,42.49
2023-04-09T19:32:57.946Z,42.38
2023-04-09T19:35:24.928Z,43.10
2023-04-09T19:37:51.790Z,42.48
2023-04-09T19:40:19.789Z,42.81
2023-04-09T19:42:46.421Z,42.55
2023-04-09T19:45:13.134Z,43.43
2023-04-09T19:47:39.764Z,42.83
2023-04-09T19:50:07.075Z,43.29
2023-04-09T19:52:33.795Z,42.98
2023-04-09T19:55:01.954Z,43.93
2023-04-09T19:57:28.776Z,43.11
2023-04-09T19:59:55.569Z,43.59
2023-04-09T20:02:22.485Z,42.83
2023-04-09T20:04:50.556Z,44.42
2023-04-09T20:07:17.294Z,44.78
2023-04-09T20:09:44.014Z,44.07
2023-04-09T20:12:10.829Z,43.68
2023-04-09T20:14:38.393Z,43.83
2023-04-09T20:17:05.921Z,44.06
2023-04-09T20:19:32.557Z,44.99
2023-04-09T20:22:02.214Z,44.84
2023-04-09T20:24:29.144Z,44.67
2023-04-09T20:26:55.966Z,44.42
2023-04-09T20:29:22.823Z,44.43
2023-04-09T20:31:49.490Z,44.12
2023-04-09T20:34:16.309Z,43.83
2023-04-09T20:36:43.937Z,43.70
2023-04-09T20:39:11.654Z,43.82
2023-04-09T20:41:38.864Z,44.03
2023-04-09T20:44:05.945Z,43.97
2023-04-09T20:46:32.779Z,44.66
2023-04-09T20:48:59.397Z,44.52
2023-04-09T20:51:26.200Z,44.50
2023-04-09T20:53:52.858Z,44.90
2023-04-09T20:56:19.619Z,45.23
2023-04-09T20:58:46.429Z,45.17
2023-04-09T21:01:13.206Z,44.87
2023-04-09T21:03:40.352Z,45.79
2023-04-09T21:06:08.249Z,45.27
2023-04-09T21:08:35.096Z,45.38
2023-04-09T21:11:02.286Z,44.91
2023-04-09T21:13:29.083Z,46.41
2023-04-09T21:15:56.711Z,46.17
2023-04-09T21:18:24.011Z,45.63
2023-04-09T21:20:50.655Z,45.84
2023-04-09T21:23:17.525Z,45.81
2023-04-09T21:25:44.203Z,46.22
2023-04-09T21:28:11.598Z,46.57
2023-04-09T21:30:38.574Z,46.11
2023-04-09T21:33:08.697Z,46.05
2023-04-09T21:35:36.352Z,45.90
2023-04-09T21:38:03.408Z,46.29
2023-04-09T21:40:30.770Z,45.55
2023-04-09T21:42:57.890Z,45.29
2023-04-09T21:45:24.667Z,45.17
2023-04-09T21:47:51.825Z,45.44
2023-04-09T21:50:18.891Z,45.33
2023-04-09T21:52:46.697Z,45.31
2023-04-09T21:55:14.223Z,45.68
2023-04-09T21:57:40.973Z,45.36
2023-04-09T22:00:09.407Z,46.56
2023-04-09T22:02:38.642Z,46.01
2023-04-09T22:05:05.914Z,46.15
2023-04-09T22:07:33.484Z,46.09
2023-04-09T22:10:00.388Z,46.33
2023-04-09T22:12:27.230Z,45.93
2023-04-09T22:14:53.893Z,45.77
2023-04-09T22:17:20.856Z,45.86
2023-04-09T22:19:47.456Z,46.02
2023-04-09T22:22:15.141Z,45.66
2023-04-09T22:24:42.925Z,45.85
2023-04-09T22:27:09.644Z,45.49
2023-04-09T22:29:37.102Z,45.63
2023-04-09T22:32:04.038Z,46.06
2023-04-09T22:34:30.699Z,45.67
2023-04-09T22:36:57.756Z,45.52
2023-04-09T22:39:24.430Z,45.54
2023-04-09T22:41:51.293Z,45.66
2023-04-09T22:44:17.944Z,46.18
2023-04-09T22:46:44.731Z,45.29
2023-04-09T22:49:12.470Z,45.99
2023-04-09T22:51:41.308Z,45.47
2023-04-09T22:54:08.861Z,46.20
2023-04-09T22:56:36.722Z,45.15
2023-04-09T22:59:03.592Z,45.27
2023-04-09T23:01:31.662Z,44.64
2023-04-09T23:03:58.353Z,45.09
2023-04-09T23:06:25.650Z,44.28
2023-04-09T23:08:52.469Z,44.13
2023-04-09T23:11:19.409Z,44.37
2023-04-09T23:13:46.449Z,44.77
2023-04-09T23:16:13.120Z,44.74
2023-04-09T23:18:40.459Z,44.27
2023-04-09T23:21:07.823Z,44.16
2023-04-09T23:23:38.105Z,44.15
2023-04-09T23:26:05.406Z,44.19
2023-04-09T23:28:32.307Z,44.38
2023-04-09T23:30:59.239Z,44.26
2023-04-09T23:33:26.058Z,43.79
2023-04-09T23:35:52.913Z,44.55
2023-04-09T23:38:19.739Z,45.02
2023-04-09T23:40:47.484Z,44.97
2023-04-09T23:43:14.125Z,44.42
2023-04-09T23:45:41.259Z,44.41
2023-04-09T23:48:08.977Z,44.93
2023-04-09T23:50:39.665Z,44.82
2023-04-09T23:53:06.671Z,45.21
2023-04-09T23:55:34.154Z,44.82
2023-04-09T23:58:01.665Z,45.14
